createdAt,value
2022-12-28T00:02:22.995Z,98468.09
2022-12-28T00:04:52.980Z,98458.19
2022-12-28T00:07:21.427Z,98445.53
2022-12-28T00:09:49.800Z,98451.06
2022-12-28T00:12:18.248Z,98452.16
2022-12-28T00:14:46.656Z,98448.59
2022-12-28T00:17:15.169Z,98446.94
2022-12-28T00:19:43.725Z,98448.88
2022-12-28T00:22:13.509Z,98443.94
2022-12-28T00:24:41.923Z,98441.19
2022-12-28T00:27:10.308Z,98428.56
2022-12-28T00:29:38.894Z,98432.41
2022-12-28T00:32:07.437Z,98424.16
2022-12-28T00:34:36.005Z,98424.44
2022-12-28T00:37:08.702Z,98420.88
2022-12-28T00:39:43.350Z,98424.72
2022-12-28T00:42:16.325Z,98421.16
2022-12-28T00:44:44.973Z,98414.00
2022-12-28T00:47:13.384Z,98411.56
2022-12-28T00:49:41.831Z,98407.97
2022-12-28T00:52:10.296Z,98402.78
2022-12-28T00:54:38.777Z,98407.44
2022-12-28T00:57:08.554Z,98395.63
2022-12-28T00:59:37.272Z,98410.50
2022-12-28T01:02:05.840Z,98407.75
2022-12-28T01:04:34.303Z,98404.44
2022-12-28T01:07:02.789Z,98401.69
2022-12-28T01:09:32.943Z,98409.13
2022-12-28T01:12:01.404Z,98405.56
2022-12-28T01:14:31.258Z,98411.06
2022-12-28T01:16:59.722Z,98406.66
2022-12-28T01:19:28.231Z,98403.09
2022-12-28T01:21:57.882Z,98396.78
2022-12-28T01:24:26.389Z,98397.88
2022-12-28T01:26:55.086Z,98395.13
2022-12-28T01:29:23.582Z,98395.13
2022-12-28T01:31:53.372Z,98380.56
2022-12-28T01:34:21.873Z,98370.38
2022-12-28T01:36:50.259Z,98373.94
2022-12-28T01:39:18.854Z,98367.91
2022-12-28T01:41:48.082Z,98363.25
2022-12-28T01:44:42.190Z,98360.50
2022-12-28T01:47:15.507Z,98355.00
2022-12-28T01:49:49.673Z,98356.09
2022-12-28T01:52:20.789Z,98349.50
2022-12-28T01:54:55.260Z,98340.13
2022-12-28T01:57:28.621Z,98339.31
2022-12-28T02:00:01.888Z,98334.91
2022-12-28T02:02:52.465Z,98339.59
2022-12-28T02:05:23.582Z,98332.47
2022-12-28T02:07:57.936Z,98324.22
2022-12-28T02:10:42.410Z,98321.47
2022-12-28T02:13:15.670Z,98311.03
2022-12-28T02:15:44.414Z,98306.06
2022-12-28T02:18:16.863Z,98304.44
2022-12-28T02:21:05.569Z,98298.94
2022-12-28T02:23:41.333Z,98285.19
2022-12-28T02:26:36.725Z,98286.00
2022-12-28T02:29:32.010Z,98279.69
2022-12-28T02:32:09.659Z,98281.59
2022-12-28T02:34:45.586Z,98273.66
2022-12-28T02:37:19.952Z,98266.50
2022-12-28T02:39:53.725Z,98273.66
2022-12-28T02:42:24.482Z,98281.06
2022-12-28T02:45:11.717Z,98279.97
2022-12-28T02:48:00.750Z,98279.97
2022-12-28T02:50:42.201Z,98276.41
2022-12-28T02:53:29.414Z,98275.56
2022-12-28T02:56:10.277Z,98272.00
2022-12-28T02:59:09.633Z,98257.72
2022-12-28T03:01:55.249Z,98254.69
2022-12-28T03:04:31.838Z,98253.88
2022-12-28T03:07:27.109Z,98246.72
2022-12-28T03:10:11.017Z,98240.41
2022-12-28T03:12:47.630Z,98235.72
2022-12-28T03:15:29.635Z,98230.22
2022-12-28T03:18:23.634Z,98230.22
2022-12-28T03:21:13.966Z,98212.91
2022-12-28T03:24:01.834Z,98217.59
2022-12-28T03:26:52.131Z,98214.03
2022-12-28T03:29:40.945Z,98215.97
2022-12-28T03:32:10.453Z,98211.28
2022-12-28T03:34:40.458Z,98209.63
2022-12-28T03:37:16.853Z,98207.72
2022-12-28T03:39:51.855Z,98211.56
2022-12-28T03:42:43.374Z,98207.72
2022-12-28T03:45:45.075Z,98195.88
2022-12-28T03:48:09.645Z,98187.94
2022-12-28T03:50:44.063Z,98180.50
2022-12-28T03:53:12.454Z,98175.81
2022-12-28T03:55:43.303Z,98176.13
2022-12-28T03:58:11.965Z,98184.06
2022-12-28T04:00:40.415Z,98195.06
2022-12-28T04:03:09.609Z,98189.88
2022-12-28T04:05:39.449Z,98180.78
2022-12-28T04:08:07.856Z,98180.78
2022-12-28T04:10:36.294Z,98178.03
2022-12-28T04:13:04.724Z,98175.28
2022-12-28T04:15:58.000Z,98172.53
2022-12-28T04:18:26.687Z,98167.34
2022-12-28T04:20:56.496Z,98165.41
2022-12-28T04:23:25.360Z,98161.03
2022-12-28T04:26:06.916Z,98146.47
2022-12-28T04:28:36.478Z,98152.47
2022-12-28T04:31:20.654Z,98155.22
2022-12-28T04:33:59.459Z,98150.84
2022-12-28T04:36:30.018Z,98157.16
2022-12-28T04:39:00.779Z,98155.53
2022-12-28T04:41:29.277Z,98153.31
2022-12-28T04:43:58.410Z,98159.09
2022-12-28T04:46:26.947Z,98148.09
2022-12-28T04:48:55.743Z,98139.03
2022-12-28T04:51:26.050Z,98135.47
2022-12-28T04:53:57.193Z,98126.44
2022-12-28T04:56:27.868Z,98133.00
2022-12-28T04:58:57.385Z,98131.91
2022-12-28T05:01:26.366Z,98129.16
2022-12-28T05:03:59.550Z,98124.47
2022-12-28T05:06:29.446Z,98129.66
2022-12-28T05:08:59.405Z,98123.88
2022-12-28T05:11:29.644Z,98119.13
2022-12-28T05:13:58.662Z,98116.78
2022-12-28T05:16:28.781Z,98125.13
2022-12-28T05:18:57.831Z,98120.88
2022-12-28T05:21:28.563Z,98120.94
2022-12-28T05:23:59.206Z,98126.53
2022-12-28T05:26:29.947Z,98123.63
2022-12-28T05:28:59.347Z,98123.25
2022-12-28T05:31:28.025Z,98130.00
2022-12-28T05:33:56.514Z,98120.53
2022-12-28T05:36:26.893Z,98115.47
2022-12-28T05:38:56.913Z,98113.16
2022-12-28T05:41:28.388Z,98121.31
2022-12-28T05:43:57.803Z,98114.09
2022-12-28T05:46:29.038Z,98107.41
2022-12-28T05:48:58.255Z,98107.31
2022-12-28T05:51:28.903Z,98109.47
2022-12-28T05:53:59.124Z,98120.69
2022-12-28T05:56:30.407Z,98119.78
2022-12-28T05:59:00.782Z,98124.09
2022-12-28T06:01:31.583Z,98119.59
2022-12-28T06:04:03.666Z,98123.38
2022-12-28T06:06:33.145Z,98132.69
2022-12-28T06:09:01.841Z,98126.56
2022-12-28T06:11:32.017Z,98121.06
2022-12-28T06:14:02.532Z,98118.81
2022-12-28T06:16:32.825Z,98120.41
2022-12-28T06:19:05.547Z,98122.25
2022-12-28T06:21:35.415Z,98131.84
2022-12-28T06:24:05.218Z,98121.94
2022-12-28T06:26:37.381Z,98120.81
2022-12-28T06:29:06.518Z,98112.56
2022-12-28T06:31:36.646Z,98104.19
2022-12-28T06:34:07.189Z,98105.19
2022-12-28T06:36:38.385Z,98097.94
2022-12-28T06:39:08.958Z,98097.34
2022-12-28T06:41:39.543Z,98089.88
2022-12-28T06:44:09.054Z,98099.78
2022-12-28T06:46:38.079Z,98083.84
2022-12-28T06:49:07.011Z,98083.66
2022-12-28T06:51:40.360Z,98085.50
2022-12-28T06:54:09.399Z,98087.13
2022-12-28T06:56:39.759Z,98086.50
2022-12-28T06:59:08.654Z,98095.50
2022-12-28T07:01:39.627Z,98090.19
2022-12-28T07:04:10.385Z,98081.59
2022-12-28T07:06:40.804Z,98099.19
2022-12-28T07:09:12.161Z,98087.53
2022-12-28T07:11:41.927Z,98085.28
2022-12-28T07:14:10.491Z,98090.19
2022-12-28T07:19:06.425Z,98088.97
2022-12-28T07:21:36.646Z,98074.84
2022-12-28T07:24:06.703Z,98081.38
2022-12-28T07:26:37.870Z,98082.72
2022-12-28T07:29:09.387Z,98072.78
2022-12-28T07:31:44.712Z,98062.88
2022-12-28T07:34:15.124Z,98077.69
2022-12-28T07:36:44.105Z,98068.28
2022-12-28T07:39:12.736Z,98066.84
2022-12-28T07:41:41.252Z,98059.28
2022-12-28T07:44:12.717Z,98058.78
2022-12-28T07:46:41.824Z,98059.47
2022-12-28T07:49:10.212Z,98058.66
2022-12-28T07:51:40.093Z,98061.09
2022-12-28T07:54:08.744Z,98054.75
2022-12-28T07:59:06.474Z,98045.16
2022-12-28T08:01:37.471Z,98044.34
2022-12-28T08:04:09.036Z,98042.72
2022-12-28T08:06:39.232Z,98045.97
2022-12-28T08:09:08.993Z,98052.31
2022-12-28T08:11:39.934Z,98044.34
2022-12-28T08:14:09.285Z,98039.75
2022-12-28T08:16:40.890Z,98034.66
2022-12-28T08:19:10.288Z,98035.41
2022-12-28T08:21:40.448Z,98039.41
2022-12-28T08:24:10.707Z,98040.94
2022-12-28T08:26:41.090Z,98042.38
2022-12-28T08:29:12.373Z,98043.78
2022-12-28T08:31:43.644Z,98032.56
2022-12-28T08:34:15.946Z,98034.81
2022-12-28T08:36:44.375Z,98022.97
2022-12-28T08:39:12.833Z,98026.03
2022-12-28T08:41:41.283Z,98021.31
2022-12-28T08:44:09.968Z,98026.03
2022-12-28T08:46:40.557Z,98018.88
2022-12-28T08:49:10.585Z,98018.38
2022-12-28T08:51:41.533Z,98013.97
2022-12-28T08:54:11.361Z,98017.25
2022-12-28T08:56:41.363Z,98020.50
2022-12-28T08:59:10.178Z,98022.16
2022-12-28T09:01:44.250Z,98019.91
2022-12-28T09:04:16.398Z,98019.19
2022-12-28T09:06:45.288Z,98018.47
2022-12-28T09:09:16.475Z,98016.25
2022-12-28T09:11:46.203Z,98022.78
2022-12-28T09:14:22.647Z,98029.34
2022-12-28T09:16:53.639Z,98020.16
2022-12-28T09:19:24.141Z,98023.84
2022-12-28T09:21:55.185Z,98021.41
2022-12-28T09:24:24.174Z,98013.84
2022-12-28T09:26:54.534Z,98016.19
2022-12-28T09:29:23.047Z,98015.28
2022-12-28T09:31:51.583Z,98020.16
2022-12-28T09:34:37.638Z,98027.31
2022-12-28T09:37:08.787Z,98020.34
2022-12-28T09:39:37.561Z,98014.34
2022-12-28T09:42:13.548Z,98018.41
2022-12-28T09:44:50.998Z,98012.28
2022-12-28T09:47:26.795Z,98009.72
2022-12-28T09:50:06.162Z,98005.53
2022-12-28T09:52:43.591Z,97997.25
2022-12-28T09:55:18.946Z,97990.09
2022-12-28T09:57:50.946Z,97999.50
2022-12-28T10:00:22.590Z,97992.88
2022-12-28T10:02:56.197Z,97987.16
2022-12-28T10:05:26.888Z,97994.59
2022-12-28T10:08:00.066Z,97985.81
2022-12-28T10:10:29.511Z,97986.47
2022-12-28T10:13:21.629Z,97984.50
2022-12-28T10:15:58.681Z,97987.09
2022-12-28T10:18:30.096Z,97973.41
2022-12-28T10:21:01.203Z,97974.03
2022-12-28T10:23:38.255Z,97968.31
2022-12-28T10:26:16.730Z,97962.59
2022-12-28T10:28:50.277Z,97955.75
2022-12-28T10:31:32.329Z,97950.16
2022-12-28T10:34:01.428Z,97943.63
2022-12-28T10:36:34.947Z,97947.50
2022-12-28T10:39:07.334Z,97944.25
2022-12-28T10:41:38.772Z,97939.03
2022-12-28T10:47:19.298Z,97930.56
2022-12-28T10:50:18.540Z,97927.28
2022-12-28T10:52:40.516Z,97917.69
2022-12-28T10:55:32.133Z,97913.59
2022-12-28T10:58:34.173Z,97913.41
2022-12-28T11:01:06.762Z,97914.81
2022-12-28T11:03:37.954Z,97904.41
2022-12-28T11:06:11.008Z,97908.91
2022-12-28T11:08:40.619Z,97900.13
2022-12-28T11:11:20.786Z,97906.25
2022-12-28T11:13:55.197Z,97899.13
2022-12-28T11:16:23.710Z,97894.22
2022-12-28T11:18:52.245Z,97900.84
2022-12-28T11:21:22.708Z,97893.19
2022-12-28T11:23:53.174Z,97889.94
2022-12-28T11:26:23.154Z,97887.47
2022-12-28T11:28:52.939Z,97879.53
2022-12-28T11:31:28.703Z,97876.25
2022-12-28T11:34:02.416Z,97871.88
2022-12-28T11:36:33.129Z,97867.50
2022-12-28T11:39:32.806Z,97865.03
2022-12-28T11:42:37.038Z,97860.34
2022-12-28T11:44:54.224Z,97857.91
2022-12-28T11:47:32.907Z,97855.47
2022-12-28T11:50:42.306Z,97854.66
2022-12-28T11:53:43.463Z,97841.19
2022-12-28T11:56:13.676Z,97846.69
2022-12-28T11:59:01.246Z,97837.91
2022-12-28T12:01:49.708Z,97837.91
2022-12-28T12:04:37.690Z,97829.16
2022-12-28T12:07:45.635Z,97820.91
2022-12-28T12:10:29.234Z,97822.00
2022-12-28T12:12:58.460Z,97813.25
2022-12-28T12:15:34.919Z,97810.81
2022-12-28T12:18:05.422Z,97809.97
2022-12-28T12:20:49.903Z,97815.28
2022-12-28T12:23:29.918Z,97792.75
2022-12-28T12:26:01.881Z,97800.41
2022-12-28T12:28:36.421Z,97791.34
2022-12-28T12:31:12.339Z,97788.88
2022-12-28T12:33:45.349Z,97783.88
2022-12-28T12:36:30.719Z,97789.91
2022-12-28T12:39:37.765Z,97787.34
2022-12-28T12:42:20.054Z,97778.78
2022-12-28T12:44:57.578Z,97771.84
2022-12-28T12:47:54.296Z,97777.34
2022-12-28T12:50:55.101Z,97780.63
2022-12-28T12:53:37.307Z,97771.25
2022-12-28T12:56:12.776Z,97769.00
2022-12-28T12:58:54.622Z,97762.38
2022-12-28T13:01:34.342Z,97762.38
2022-12-28T13:04:09.309Z,97755.75
2022-12-28T13:06:40.401Z,97750.22
2022-12-28T13:09:17.210Z,97746.34
2022-12-28T13:11:47.026Z,97743.59
2022-12-28T13:14:20.799Z,97736.16
2022-12-28T13:16:51.753Z,97733.41
2022-12-28T13:19:24.121Z,97736.47
2022-12-28T13:21:53.489Z,97735.97
2022-12-28T13:24:24.440Z,97732.69
2022-12-28T13:26:53.714Z,97730.25
2022-12-28T13:29:24.230Z,97729.13
2022-12-28T13:31:53.170Z,97727.19
2022-12-28T13:34:26.175Z,97724.13
2022-12-28T13:36:58.174Z,97721.06
2022-12-28T13:39:28.122Z,97729.84
2022-12-28T13:41:59.166Z,97724.84
2022-12-28T13:44:40.150Z,97724.84
2022-12-28T13:47:23.178Z,97721.28
2022-12-28T13:49:58.486Z,97724.84
2022-12-28T13:52:32.046Z,97720.97
2022-12-28T13:55:04.920Z,97715.97
2022-12-28T13:57:46.385Z,97710.47
2022-12-28T14:00:18.750Z,97706.06
2022-12-28T14:02:48.295Z,97704.94
2022-12-28T14:05:21.368Z,97713.53
2022-12-28T14:07:52.313Z,97708.31
2022-12-28T14:10:21.523Z,97700.06
2022-12-28T14:12:51.578Z,97703.94
2022-12-28T14:15:20.831Z,97700.06
2022-12-28T14:17:51.800Z,97705.56
2022-12-28T14:20:21.702Z,97705.56
2022-12-28T14:22:50.505Z,97707.19
2022-12-28T14:25:22.312Z,97702.50
2022-12-28T14:27:57.489Z,97709.63
2022-12-28T14:30:29.442Z,97701.69
2022-12-28T14:33:02.349Z,97689.06
2022-12-28T14:35:32.519Z,97690.69
2022-12-28T14:38:02.017Z,97696.19
2022-12-28T14:40:33.467Z,97689.88
2022-12-28T14:43:08.295Z,97691.19
2022-12-28T14:46:07.615Z,97690.69
2022-12-28T14:48:37.161Z,97692.00
2022-12-28T14:51:24.690Z,97685.16
2022-12-28T14:54:16.362Z,97679.66
2022-12-28T14:56:46.401Z,97680.47
2022-12-28T14:59:20.559Z,97673.03
2022-12-28T15:01:49.641Z,97660.41
2022-12-28T15:04:34.810Z,97661.53
2022-12-28T15:07:05.485Z,97654.38
2022-12-28T15:09:33.948Z,97657.63
2022-12-28T15:12:10.327Z,97656.00
2022-12-28T15:14:38.882Z,97657.63
2022-12-28T15:17:08.008Z,97654.88
2022-12-28T15:19:36.921Z,97658.75
2022-12-28T15:22:06.930Z,97662.13
2022-12-28T15:24:35.722Z,97652.56
2022-12-28T15:27:04.754Z,97651.25
2022-12-28T15:30:04.213Z,97646.88
2022-12-28T15:32:21.881Z,97642.78
2022-12-28T15:34:50.349Z,97647.47
2022-12-28T15:37:20.155Z,97642.28
2022-12-28T15:39:48.942Z,97639.84
2022-12-28T15:42:17.434Z,97636.59
2022-12-28T15:44:48.416Z,97637.72
2022-12-28T15:47:16.895Z,97634.97
2022-12-28T15:49:45.446Z,97636.09
2022-12-28T15:52:14.090Z,97641.59
2022-12-28T15:54:47.152Z,97629.75
2022-12-28T15:57:16.197Z,97628.13
2022-12-28T15:59:44.660Z,97628.44
2022-12-28T16:02:13.647Z,97632.00
2022-12-28T16:04:42.241Z,97640.56
2022-12-28T16:07:11.636Z,97635.06
2022-12-28T16:09:40.078Z,97632.63
2022-12-28T16:12:10.028Z,97637.81
2022-12-28T16:14:38.582Z,97630.19
2022-12-28T16:17:07.430Z,97631.44
2022-12-28T16:19:36.043Z,97629.09
2022-12-28T16:22:04.658Z,97635.03
2022-12-28T16:24:33.209Z,97621.03
2022-12-28T16:27:01.733Z,97628.69
2022-12-28T16:29:31.842Z,97625.09
2022-12-28T16:32:01.522Z,97620.66
2022-12-28T16:34:31.594Z,97624.53
2022-12-28T16:37:00.299Z,97626.16
2022-12-28T16:39:30.781Z,97615.16
2022-12-28T16:41:59.518Z,97610.47
2022-12-28T16:44:29.341Z,97618.41
2022-12-28T16:46:59.633Z,97610.66
2022-12-28T16:49:29.618Z,97611.34
2022-12-28T16:51:58.404Z,97608.28
2022-12-28T16:54:28.254Z,97607.97
2022-12-28T16:56:57.055Z,97590.84
2022-12-28T16:59:27.759Z,97592.78
2022-12-28T17:01:57.633Z,97582.72
2022-12-28T17:04:27.731Z,97582.41
2022-12-28T17:06:56.123Z,97586.59
2022-12-28T17:09:24.587Z,97584.97
2022-12-28T17:11:53.095Z,97581.41
2022-12-28T17:14:36.494Z,97588.84
2022-12-28T17:17:06.414Z,97579.78
2022-12-28T17:19:36.985Z,97592.72
2022-12-28T17:22:05.986Z,97582.53
2022-12-28T17:24:34.510Z,97588.03
2022-12-28T17:27:07.814Z,97584.47
2022-12-28T17:29:38.180Z,97589.16
2022-12-28T17:32:07.885Z,97582.53
2022-12-28T17:34:38.231Z,97580.06
2022-12-28T17:37:07.098Z,97578.13
2022-12-28T17:39:40.351Z,97580.06
2022-12-28T17:42:10.139Z,97584.75
2022-12-28T17:44:39.080Z,97580.88
2022-12-28T17:47:07.519Z,97578.44
2022-12-28T17:49:35.987Z,97575.38
2022-12-28T17:52:06.069Z,97580.88
2022-12-28T17:54:34.931Z,97575.38
2022-12-28T17:57:03.358Z,97568.25
2022-12-28T17:59:31.866Z,97578.13
2022-12-28T18:02:01.971Z,97573.75
2022-12-28T18:04:30.891Z,97572.13
2022-12-28T18:06:59.438Z,97560.00
2022-12-28T18:09:29.523Z,97560.31
2022-12-28T18:11:58.112Z,97549.63
2022-12-28T18:14:26.904Z,97553.81
2022-12-28T18:16:56.197Z,97550.56
2022-12-28T18:19:24.712Z,97552.75
2022-12-28T18:21:53.276Z,97544.81
2022-12-28T18:24:22.360Z,97540.94
2022-12-28T18:26:52.235Z,97539.63
2022-12-28T18:29:20.764Z,97528.94
2022-12-28T18:31:49.396Z,97527.81
2022-12-28T18:34:17.928Z,97516.31
2022-12-28T18:36:46.404Z,97514.69
2022-12-28T18:39:14.907Z,97515.81
2022-12-28T18:41:43.386Z,97513.06
2022-12-28T18:44:13.229Z,97503.19
2022-12-28T18:46:41.760Z,97498.81
2022-12-28T18:49:10.428Z,97505.94
2022-12-28T18:51:38.886Z,97503.19
2022-12-28T18:54:07.440Z,97498.81
2022-12-28T18:56:35.973Z,97494.13
2022-12-28T18:59:04.557Z,97500.44
2022-12-28T19:04:25.706Z,97484.53
2022-12-28T19:06:54.203Z,97483.41
2022-12-28T19:09:22.846Z,97472.09
2022-12-28T19:11:52.670Z,97471.00
2022-12-28T19:14:21.438Z,97475.66
2022-12-28T19:16:51.294Z,97467.44
2022-12-28T19:19:20.911Z,97470.19
2022-12-28T19:21:53.630Z,97473.75
2022-12-28T19:24:25.282Z,97465.47
2022-12-28T19:26:54.091Z,97466.59
2022-12-28T19:29:23.766Z,97459.16
2022-12-28T19:31:54.469Z,97450.91
2022-12-28T19:34:23.143Z,97447.84
2022-12-28T19:36:51.675Z,97451.91
2022-12-28T19:39:20.150Z,97448.56
2022-12-28T19:41:48.669Z,97436.63
2022-12-28T19:44:20.268Z,97441.50
2022-12-28T19:46:49.332Z,97436.81
2022-12-28T19:49:19.340Z,97432.63
2022-12-28T19:51:48.027Z,97438.31
2022-12-28T19:54:16.802Z,97432.81
2022-12-28T19:56:45.646Z,97438.31
2022-12-28T19:59:14.130Z,97430.06
2022-12-28T20:01:42.710Z,97425.19
2022-12-28T20:04:14.004Z,97425.19
2022-12-28T20:06:44.900Z,97427.13
2022-12-28T20:09:14.772Z,97418.88
2022-12-28T20:11:44.747Z,97415.63
2022-12-28T20:14:19.146Z,97423.56
2022-12-28T20:16:52.734Z,97413.69
2022-12-28T20:19:21.383Z,97407.69
2022-12-28T20:21:51.293Z,97407.69
2022-12-28T20:24:21.802Z,97402.50
2022-12-28T20:26:51.480Z,97407.69
2022-12-28T20:29:21.464Z,97406.06
2022-12-28T20:31:51.411Z,97404.44
2022-12-28T20:34:19.987Z,97405.56
2022-12-28T20:36:49.462Z,97401.19
2022-12-28T20:39:19.257Z,97390.19
2022-12-28T20:42:05.466Z,97394.88
2022-12-28T20:44:34.274Z,97392.41
2022-12-28T20:47:03.151Z,97383.34
2022-12-28T20:49:31.988Z,97383.66
2022-12-28T20:52:00.527Z,97379.28
2022-12-28T20:54:30.393Z,97388.53
2022-12-28T20:56:58.885Z,97391.50
2022-12-28T20:59:27.608Z,97389.75
2022-12-28T21:01:56.219Z,97387.97
2022-12-28T21:04:25.684Z,97396.44
2022-12-28T21:06:54.875Z,97383.16
2022-12-28T21:09:23.581Z,97376.84
2022-12-28T21:11:53.433Z,97380.91
2022-12-28T21:14:22.001Z,97373.78
2022-12-28T21:16:50.563Z,97372.66
2022-12-28T21:19:19.118Z,97383.16
2022-12-28T21:21:49.437Z,97372.78
2022-12-28T21:24:17.938Z,97364.03
2022-12-28T21:26:46.465Z,97358.03
2022-12-28T21:29:20.624Z,97352.84
2022-12-28T21:31:54.358Z,97350.41
2022-12-28T21:34:23.899Z,97358.97
2022-12-28T21:36:52.336Z,97362.06
2022-12-28T21:39:21.076Z,97350.53
2022-12-28T21:41:49.845Z,97351.69
2022-12-28T21:44:21.452Z,97350.03
2022-12-28T21:46:51.718Z,97349.53
2022-12-28T21:49:21.455Z,97354.53
2022-12-28T21:51:50.157Z,97352.59
2022-12-28T21:54:20.754Z,97341.91
2022-12-28T21:56:51.879Z,97333.97
2022-12-28T21:59:22.609Z,97341.91
2022-12-28T22:02:10.011Z,97344.66
2022-12-28T22:05:02.193Z,97335.91
2022-12-28T22:07:32.141Z,97329.28
2022-12-28T22:10:18.008Z,97332.34
2022-12-28T22:12:46.617Z,97329.91
2022-12-28T22:15:36.647Z,97331.53
2022-12-28T22:18:07.456Z,97324.41
2022-12-28T22:20:37.806Z,97319.53
2022-12-28T22:23:07.192Z,97314.53
2022-12-28T22:25:37.105Z,97312.91
2022-12-28T22:28:06.485Z,97310.16
2022-12-28T22:30:37.632Z,97308.53
2022-12-28T22:33:06.670Z,97301.09
2022-12-28T22:35:35.478Z,97297.53
2022-12-28T22:38:03.995Z,97298.66
2022-12-28T22:40:32.598Z,97301.41
2022-12-28T22:43:01.107Z,97295.09
2022-12-28T22:45:29.794Z,97295.91
2022-12-28T22:48:00.058Z,97287.97
2022-12-28T22:50:29.285Z,97294.28
2022-12-28T22:52:58.265Z,97284.41
2022-12-28T22:55:26.838Z,97292.66
2022-12-28T22:57:55.265Z,97292.66
2022-12-28T23:00:23.886Z,97287.16
2022-12-28T23:02:52.501Z,97291.03
2022-12-28T23:05:22.377Z,97281.16
2022-12-28T23:07:50.880Z,97281.97
2022-12-28T23:10:19.392Z,97289.41
2022-12-28T23:12:47.790Z,97277.59
2022-12-28T23:15:19.579Z,97278.41
2022-12-28T23:17:49.456Z,97276.78
2022-12-28T23:20:36.147Z,97271.28
2022-12-28T23:23:23.705Z,97276.78
2022-12-28T23:26:09.855Z,97271.28
2022-12-28T23:28:38.346Z,97272.41
2022-12-28T23:31:06.932Z,97271.59
2022-12-28T23:33:36.792Z,97282.59
2022-12-28T23:36:06.070Z,97268.84
2022-12-28T23:38:35.901Z,97272.41
2022-12-28T23:41:25.254Z,97264.47
2022-12-28T23:43:53.694Z,97256.22
2022-12-28T23:46:22.204Z,97257.03
2022-12-28T23:48:50.662Z,97260.94
2022-12-28T23:51:19.357Z,97255.44
2022-12-28T23:53:49.134Z,97249.94
2022-12-28T23:56:17.561Z,97241.69
2022-12-28T23:58:46.014Z,97248.31
